createdAt,value
2023-05-09T00:01:41.481Z,98176.75
2023-05-09T00:04:08.063Z,98172.84
2023-05-09T00:06:34.615Z,98178.28
2023-05-09T00:09:07.312Z,98174.38
2023-05-09T00:11:34.022Z,98168.97
2023-05-09T00:14:04.636Z,98167.41
2023-05-09T00:16:33.119Z,98175.94
2023-05-09T00:19:00.211Z,98170.50
2023-05-09T00:21:26.718Z,98166.56
2023-05-09T00:23:53.241Z,98157.22
2023-05-09T00:26:24.234Z,98153.38
2023-05-09T00:28:50.697Z,98151.03
2023-05-09T00:31:17.175Z,98144.03
2023-05-09T00:33:51.884Z,98135.50
2023-05-09T00:36:18.348Z,98129.63
2023-05-09T00:38:44.874Z,98127.66
2023-05-09T00:41:13.575Z,98130.72
2023-05-09T00:43:40.259Z,98124.56
2023-05-09T00:46:07.159Z,98123.00
2023-05-09T00:48:35.568Z,98122.19
2023-05-09T00:51:02.381Z,98122.22
2023-05-09T00:53:28.941Z,98116.41
2023-05-09T00:55:56.881Z,98118.44
2023-05-09T00:58:27.546Z,98114.19
2023-05-09T01:00:54.042Z,98114.94
2023-05-09T01:03:22.466Z,98110.25
2023-05-09T01:05:58.543Z,98104.47
2023-05-09T01:09:10.452Z,98101.81
2023-05-09T01:11:44.284Z,98107.63
2023-05-09T01:14:22.733Z,98099.06
2023-05-09T01:17:10.898Z,98100.59
2023-05-09T01:19:52.284Z,98101.75
2023-05-09T01:22:24.649Z,98103.31
2023-05-09T01:25:23.524Z,98100.59
2023-05-09T01:28:11.950Z,98100.63
2023-05-09T01:30:42.546Z,98101.41
2023-05-09T01:33:11.912Z,98091.28
2023-05-09T01:35:40.922Z,98095.94
2023-05-09T01:38:17.851Z,98093.19
2023-05-09T01:40:47.601Z,98094.34
2023-05-09T01:43:18.283Z,98092.41
2023-05-09T01:45:46.270Z,98098.94
2023-05-09T01:48:13.440Z,98088.84
2023-05-09T01:50:40.994Z,98083.47
2023-05-09T01:53:15.086Z,98087.34
2023-05-09T01:55:44.165Z,98078.81
2023-05-09T01:58:14.032Z,98073.78
2023-05-09T02:00:43.300Z,98076.81
2023-05-09T02:03:10.001Z,98084.94
2023-05-09T02:05:37.484Z,98081.41
2023-05-09T02:08:04.409Z,98076.31
2023-05-09T02:10:31.371Z,98072.41
2023-05-09T02:12:58.091Z,98073.59
2023-05-09T02:15:31.761Z,98063.47
2023-05-09T02:17:58.440Z,98064.63
2023-05-09T02:20:25.078Z,98065.72
2023-05-09T02:22:53.514Z,98064.94
2023-05-09T02:25:20.248Z,98072.25
2023-05-09T02:27:47.137Z,98064.47
2023-05-09T02:30:25.466Z,98059.41
2023-05-09T02:32:56.748Z,98061.31
2023-05-09T02:35:26.026Z,98059.75
2023-05-09T02:37:59.550Z,98061.66
2023-05-09T02:40:28.128Z,98067.41
2023-05-09T02:42:54.837Z,98059.63
2023-05-09T02:45:21.808Z,98062.75
2023-05-09T02:47:48.363Z,98050.34
2023-05-09T02:50:16.918Z,98062.00
2023-05-09T02:52:45.264Z,98062.84
2023-05-09T02:55:12.117Z,98065.50
2023-05-09T02:57:38.819Z,98061.66
2023-05-09T03:00:09.760Z,98058.53
2023-05-09T03:02:37.444Z,98052.72
2023-05-09T03:05:04.264Z,98060.47
2023-05-09T03:07:31.039Z,98063.28
2023-05-09T03:09:57.718Z,98057.84
2023-05-09T03:12:24.228Z,98059.03
2023-05-09T03:14:52.423Z,98050.91
2023-05-09T03:17:21.414Z,98049.00
2023-05-09T03:19:48.635Z,98047.09
2023-05-09T03:22:23.119Z,98045.22
2023-05-09T03:24:49.618Z,98052.59
2023-05-09T03:27:16.107Z,98051.38
2023-05-09T03:29:42.979Z,98043.22
2023-05-09T03:32:09.651Z,98048.66
2023-05-09T03:34:36.388Z,98038.19
2023-05-09T03:37:02.966Z,98037.00
2023-05-09T03:39:29.551Z,98035.81
2023-05-09T03:41:56.325Z,98031.50
2023-05-09T03:44:23.049Z,98031.13
2023-05-09T03:46:50.243Z,98035.75
2023-05-09T03:49:16.763Z,98028.41
2023-05-09T03:51:45.588Z,98035.41
2023-05-09T03:54:12.326Z,98032.72
2023-05-09T03:56:38.790Z,98036.63
2023-05-09T03:59:05.517Z,98042.84
2023-05-09T04:01:35.458Z,98037.84
2023-05-09T04:04:02.015Z,98035.13
2023-05-09T04:06:31.841Z,98046.78
2023-05-09T04:08:58.366Z,98039.81
2023-05-09T04:11:24.932Z,98040.97
2023-05-09T04:13:55.927Z,98046.78
2023-05-09T04:16:22.510Z,98034.41
2023-05-09T04:18:49.031Z,98043.69
2023-05-09T04:21:17.512Z,98040.97
2023-05-09T04:23:44.059Z,98040.63
2023-05-09T04:26:13.970Z,98035.97
2023-05-09T04:28:40.571Z,98036.72
2023-05-09T04:31:07.271Z,98032.91
2023-05-09T04:33:34.639Z,98032.47
2023-05-09T04:36:03.312Z,98035.19
2023-05-09T04:38:31.524Z,98029.00
2023-05-09T04:40:58.600Z,98037.13
2023-05-09T04:43:28.188Z,98032.44
2023-05-09T04:45:54.786Z,98030.91
2023-05-09T04:48:22.940Z,98030.50
2023-05-09T04:50:54.160Z,98025.09
2023-05-09T04:53:20.624Z,98018.16
2023-05-09T04:55:47.196Z,98018.91
2023-05-09T04:58:22.124Z,98021.22
2023-05-09T05:00:49.533Z,98028.22
2023-05-09T05:03:17.962Z,98034.50
2023-05-09T05:05:45.051Z,98025.91
2023-05-09T05:08:11.824Z,98019.78
2023-05-09T05:10:41.745Z,98029.09
2023-05-09T05:13:10.128Z,98027.53
2023-05-09T05:15:36.647Z,98021.28
2023-05-09T05:18:03.364Z,98020.09
2023-05-09T05:20:31.629Z,98022.03
2023-05-09T05:23:01.470Z,98025.13
2023-05-09T05:25:27.941Z,98018.16
2023-05-09T05:27:56.189Z,98015.44
2023-05-09T05:30:22.909Z,98011.19
2023-05-09T05:32:49.542Z,98004.59
2023-05-09T05:35:19.614Z,98011.97
2023-05-09T05:37:48.360Z,98007.38
2023-05-09T05:40:15.920Z,98009.34
2023-05-09T05:42:44.540Z,98015.91
2023-05-09T05:45:11.280Z,98016.34
2023-05-09T05:47:37.793Z,98011.69
2023-05-09T05:50:12.098Z,98014.44
2023-05-09T05:52:39.606Z,98007.81
2023-05-09T05:55:06.563Z,98008.22
2023-05-09T05:57:36.291Z,98007.84
2023-05-09T06:00:06.142Z,98009.03
2023-05-09T06:02:32.796Z,98008.66
2023-05-09T06:05:01.145Z,98008.69
2023-05-09T06:07:27.679Z,98006.75
2023-05-09T06:09:54.162Z,97994.34
2023-05-09T06:12:27.273Z,97992.41
2023-05-09T06:14:54.523Z,98004.44
2023-05-09T06:17:21.187Z,97995.94
2023-05-09T06:19:47.869Z,97997.88
2023-05-09T06:22:14.673Z,97982.75
2023-05-09T06:24:41.155Z,97985.47
2023-05-09T06:27:09.353Z,97981.97
2023-05-09T06:29:35.887Z,97975.75
2023-05-09T06:32:02.417Z,97975.38
2023-05-09T06:34:39.710Z,97973.81
2023-05-09T06:37:08.651Z,97965.63
2023-05-09T06:39:35.277Z,97957.09
2023-05-09T06:42:01.827Z,97954.78
2023-05-09T06:44:28.295Z,97961.72
2023-05-09T06:46:55.363Z,97953.13
2023-05-09T06:49:23.606Z,97943.75
2023-05-09T06:51:50.113Z,97940.59
2023-05-09T06:54:17.250Z,97938.94
2023-05-09T06:56:45.752Z,97933.78
2023-05-09T06:59:13.471Z,97939.84
2023-05-09T07:01:41.074Z,97933.91
2023-05-09T07:04:07.963Z,97935.31
2023-05-09T07:06:38.519Z,97921.09
2023-05-09T07:09:05.057Z,97922.56
2023-05-09T07:11:40.606Z,97922.81
2023-05-09T07:14:10.476Z,97918.78
2023-05-09T07:16:37.718Z,97913.47
2023-05-09T07:19:06.334Z,97911.75
2023-05-09T07:21:34.401Z,97907.00
2023-05-09T07:24:01.158Z,97911.75
2023-05-09T07:26:29.547Z,97908.31
2023-05-09T07:28:56.078Z,97905.66
2023-05-09T07:31:22.579Z,97907.56
2023-05-09T07:33:49.328Z,97893.19
2023-05-09T07:36:20.062Z,97898.97
2023-05-09T07:38:48.041Z,97885.31
2023-05-09T07:41:16.244Z,97884.09
2023-05-09T07:43:42.765Z,97890.72
2023-05-09T07:46:09.327Z,97880.34
2023-05-09T07:48:42.805Z,97876.38
2023-05-09T07:51:09.624Z,97867.25
2023-05-09T07:53:36.482Z,97869.47
2023-05-09T07:56:03.082Z,97864.50
2023-05-09T07:58:29.553Z,97866.19
2023-05-09T08:00:57.013Z,97862.66
2023-05-09T08:03:23.770Z,97851.34
2023-05-09T08:05:54.511Z,97847.94
2023-05-09T08:08:21.131Z,97845.66
2023-05-09T08:10:49.520Z,97832.41
2023-05-09T08:13:19.793Z,97840.84
2023-05-09T08:15:46.406Z,97841.28
2023-05-09T08:18:13.023Z,97828.34
2023-05-09T08:20:39.516Z,97835.38
2023-05-09T08:23:06.046Z,97828.44
2023-05-09T08:25:41.119Z,97823.75
2023-05-09T08:28:07.620Z,97818.59
2023-05-09T08:30:34.195Z,97816.25
2023-05-09T08:33:01.032Z,97807.00
2023-05-09T08:35:27.614Z,97801.31
2023-05-09T08:37:54.246Z,97804.44
2023-05-09T08:40:21.112Z,97797.78
2023-05-09T08:42:49.408Z,97797.47
2023-05-09T08:45:17.146Z,97790.75
2023-05-09T08:47:46.370Z,97787.16
2023-05-09T08:50:18.788Z,97788.06
2023-05-09T08:52:46.055Z,97789.47
2023-05-09T08:55:13.104Z,97781.38
2023-05-09T08:57:40.259Z,97775.78
2023-05-09T09:00:07.446Z,97776.31
2023-05-09T09:02:35.954Z,97787.38
2023-05-09T09:05:05.207Z,97772.88
2023-05-09T09:07:34.502Z,97757.22
2023-05-09T09:10:03.842Z,97763.59
2023-05-09T09:12:31.868Z,97760.91
2023-05-09T09:15:05.095Z,97749.50
2023-05-09T09:17:33.440Z,97738.97
2023-05-09T09:20:05.592Z,97737.03
2023-05-09T09:22:39.555Z,97741.50
2023-05-09T09:25:06.195Z,97727.25
2023-05-09T09:27:32.644Z,97740.34
2023-05-09T09:30:14.705Z,97735.72
2023-05-09T09:32:42.029Z,97738.66
2023-05-09T09:35:12.193Z,97732.53
2023-05-09T09:37:40.618Z,97735.88
2023-05-09T09:40:15.619Z,97726.09
2023-05-09T09:42:44.118Z,97722.66
2023-05-09T09:45:12.665Z,97717.00
2023-05-09T09:47:40.707Z,97709.81
2023-05-09T09:50:14.334Z,97714.88
2023-05-09T09:52:57.672Z,97704.69
2023-05-09T09:55:26.686Z,97704.88
2023-05-09T09:57:53.282Z,97700.06
2023-05-09T10:00:26.180Z,97692.53
2023-05-09T10:02:55.595Z,97693.75
2023-05-09T10:05:26.718Z,97684.59
2023-05-09T10:08:03.583Z,97677.59
2023-05-09T10:10:33.240Z,97673.63
2023-05-09T10:13:02.530Z,97669.31
2023-05-09T10:15:41.224Z,97667.56
2023-05-09T10:18:23.729Z,97656.16
2023-05-09T10:20:50.885Z,97655.53
2023-05-09T10:23:18.365Z,97640.03
2023-05-09T10:25:48.404Z,97640.03
2023-05-09T10:28:20.386Z,97636.28
2023-05-09T10:31:24.592Z,97633.50
2023-05-09T10:33:53.294Z,97628.03
2023-05-09T10:36:21.347Z,97626.16
2023-05-09T10:38:49.162Z,97617.72
2023-05-09T10:41:20.071Z,97611.53
2023-05-09T10:43:46.648Z,97613.38
2023-05-09T10:46:14.072Z,97606.03
2023-05-09T10:48:44.124Z,97602.19
2023-05-09T10:51:12.606Z,97600.53
2023-05-09T10:53:48.184Z,97594.59
2023-05-09T10:56:29.845Z,97588.66
2023-05-09T10:58:56.690Z,97576.72
2023-05-09T11:01:34.790Z,97581.06
2023-05-09T11:04:02.931Z,97573.09
2023-05-09T11:06:49.460Z,97572.78
2023-05-09T11:09:29.836Z,97564.78
2023-05-09T11:11:57.920Z,97562.41
2023-05-09T11:14:30.661Z,97545.63
2023-05-09T11:17:04.529Z,97544.44
2023-05-09T11:19:43.040Z,97539.41
2023-05-09T11:22:28.220Z,97539.59
2023-05-09T11:25:05.545Z,97537.78
2023-05-09T11:27:50.657Z,97531.94
2023-05-09T11:30:19.599Z,97534.69
2023-05-09T11:32:50.507Z,97529.97
2023-05-09T11:35:20.418Z,97523.50
2023-05-09T11:38:01.679Z,97514.59
2023-05-09T11:40:29.909Z,97508.75
2023-05-09T11:42:58.882Z,97509.63
2023-05-09T11:45:31.210Z,97506.66
2023-05-09T11:47:58.763Z,97496.66
2023-05-09T11:50:25.619Z,97496.69
2023-05-09T11:52:55.228Z,97482.38
2023-05-09T11:55:22.872Z,97485.72
2023-05-09T11:57:54.228Z,97483.75
2023-05-09T12:00:25.718Z,97474.44
2023-05-09T12:02:53.211Z,97477.22
2023-05-09T12:05:22.853Z,97472.56
2023-05-09T12:07:50.022Z,97472.53
2023-05-09T12:10:20.406Z,97465.81
2023-05-09T12:12:54.881Z,97456.75
2023-05-09T12:15:22.375Z,97464.25
2023-05-09T12:18:07.354Z,97456.50
2023-05-09T12:20:50.125Z,97450.00
2023-05-09T12:23:23.236Z,97444.06
2023-05-09T12:25:54.313Z,97442.94
2023-05-09T12:28:23.396Z,97435.59
2023-05-09T12:30:53.359Z,97438.44
2023-05-09T12:33:20.250Z,97431.31
2023-05-09T12:35:48.571Z,97427.78
2023-05-09T12:38:23.449Z,97428.50
2023-05-09T12:41:02.833Z,97412.94
2023-05-09T12:43:36.497Z,97416.00
2023-05-09T12:46:04.178Z,97414.66
2023-05-09T12:48:35.596Z,97409.50
2023-05-09T12:51:05.092Z,97414.53
2023-05-09T12:53:32.206Z,97410.63
2023-05-09T12:56:18.006Z,97410.13
2023-05-09T12:58:55.220Z,97409.78
2023-05-09T13:01:27.375Z,97398.94
2023-05-09T13:04:02.262Z,97400.75
2023-05-09T13:06:31.333Z,97390.94
2023-05-09T13:09:02.513Z,97392.22
2023-05-09T13:11:31.971Z,97385.09
2023-05-09T13:13:58.841Z,97386.44
2023-05-09T13:16:25.431Z,97381.69
2023-05-09T13:18:52.012Z,97371.13
2023-05-09T13:24:17.263Z,97367.34
2023-05-09T13:26:43.705Z,97365.06
2023-05-09T13:29:10.169Z,97366.00
2023-05-09T13:31:36.779Z,97362.50
2023-05-09T13:34:03.280Z,97365.94
2023-05-09T13:36:29.809Z,97357.34
2023-05-09T13:38:56.430Z,97358.28
2023-05-09T13:41:23.979Z,97353.38
2023-05-09T13:43:51.289Z,97357.66
2023-05-09T13:46:18.044Z,97339.91
2023-05-09T13:48:48.449Z,97348.66
2023-05-09T13:51:15.068Z,97338.53
2023-05-09T13:53:41.762Z,97333.81
2023-05-09T13:56:09.631Z,97339.00
2023-05-09T13:58:36.878Z,97333.50
2023-05-09T14:01:05.254Z,97334.75
2023-05-09T14:03:31.978Z,97337.66
2023-05-09T14:06:02.634Z,97340.56
2023-05-09T14:08:29.654Z,97337.34
2023-05-09T14:10:59.920Z,97334.09
2023-05-09T14:13:26.501Z,97335.72
2023-05-09T14:15:53.267Z,97344.09
2023-05-09T14:18:21.109Z,97340.06
2023-05-09T14:20:48.107Z,97341.00
2023-05-09T14:23:19.252Z,97345.25
2023-05-09T14:25:45.691Z,97349.53
2023-05-09T14:28:12.226Z,97345.78
2023-05-09T14:30:40.469Z,97339.91
2023-05-09T14:33:07.588Z,97338.72
2023-05-09T14:35:40.423Z,97348.50
2023-05-09T14:38:08.194Z,97354.09
2023-05-09T14:40:34.665Z,97348.00
2023-05-09T14:43:04.535Z,97354.03
2023-05-09T14:45:33.193Z,97356.50
2023-05-09T14:48:03.499Z,97354.63
2023-05-09T14:50:30.140Z,97350.34
2023-05-09T14:52:56.894Z,97351.31
2023-05-09T14:55:23.694Z,97355.34
2023-05-09T14:57:50.177Z,97352.03
2023-05-09T15:00:30.375Z,97353.00
2023-05-09T15:02:57.873Z,97351.69
2023-05-09T15:05:24.558Z,97349.28
2023-05-09T15:07:51.214Z,97357.16
2023-05-09T15:10:18.083Z,97356.94
2023-05-09T15:12:45.007Z,97357.38
2023-05-09T15:15:17.282Z,97358.66
2023-05-09T15:17:45.062Z,97362.78
2023-05-09T15:20:15.923Z,97358.59
2023-05-09T15:22:45.355Z,97356.06
2023-05-09T15:25:14.678Z,97362.72
2023-05-09T15:27:41.240Z,97360.66
2023-05-09T15:30:08.913Z,97367.34
2023-05-09T15:32:38.273Z,97360.88
2023-05-09T15:35:06.274Z,97369.06
2023-05-09T15:37:38.818Z,97366.34
2023-05-09T15:40:05.879Z,97366.53
2023-05-09T15:42:32.326Z,97366.09
2023-05-09T15:44:58.943Z,97370.13
2023-05-09T15:47:25.518Z,97368.44
2023-05-09T15:52:47.457Z,97373.91
2023-05-09T15:55:15.846Z,97375.69
2023-05-09T15:57:42.364Z,97378.34
2023-05-09T16:00:10.135Z,97382.03
2023-05-09T16:02:36.656Z,97374.44
2023-05-09T16:05:03.251Z,97374.50
2023-05-09T16:07:33.358Z,97372.28
2023-05-09T16:10:02.313Z,97374.34
2023-05-09T16:12:28.856Z,97373.03
2023-05-09T16:14:57.193Z,97372.84
2023-05-09T16:17:23.713Z,97371.81
2023-05-09T16:19:50.203Z,97374.63
2023-05-09T16:22:17.192Z,97367.28
2023-05-09T16:24:44.594Z,97357.69
2023-05-09T16:27:11.133Z,97363.19
2023-05-09T16:29:41.755Z,97356.72
2023-05-09T16:32:08.786Z,97362.16
2023-05-09T16:34:36.438Z,97363.03
2023-05-09T16:37:05.652Z,97361.97
2023-05-09T16:39:32.327Z,97367.50
2023-05-09T16:41:58.810Z,97363.66
2023-05-09T16:44:27.692Z,97361.28
2023-05-09T16:46:56.378Z,97359.81
2023-05-09T16:49:23.056Z,97357.50
2023-05-09T16:51:51.376Z,97352.56
2023-05-09T16:54:21.711Z,97349.47
2023-05-09T16:56:48.267Z,97351.84
2023-05-09T16:59:17.523Z,97341.75
2023-05-09T17:01:43.997Z,97350.78
2023-05-09T17:04:10.503Z,97349.38
2023-05-09T17:06:37.146Z,97345.47
2023-05-09T17:09:03.828Z,97347.88
2023-05-09T17:11:30.624Z,97349.91
2023-05-09T17:13:59.276Z,97344.44
2023-05-09T17:16:25.876Z,97346.09
2023-05-09T17:18:53.240Z,97357.09
2023-05-09T17:21:22.048Z,97350.16
2023-05-09T17:23:48.764Z,97348.53
2023-05-09T17:26:15.675Z,97347.38
2023-05-09T17:28:44.348Z,97339.97
2023-05-09T17:31:10.879Z,97341.28
2023-05-09T17:33:37.379Z,97333.59
2023-05-09T17:36:16.794Z,97323.88
2023-05-09T17:38:44.104Z,97319.97
2023-05-09T17:41:10.634Z,97324.38
2023-05-09T17:43:39.264Z,97310.22
2023-05-09T17:46:05.835Z,97317.97
2023-05-09T17:48:32.598Z,97315.91
2023-05-09T17:50:59.096Z,97303.16
2023-05-09T17:53:25.833Z,97312.28
2023-05-09T17:55:52.357Z,97311.69
2023-05-09T17:58:20.935Z,97300.09
2023-05-09T18:00:55.197Z,97314.44
2023-05-09T18:03:21.851Z,97321.00
2023-05-09T18:05:48.760Z,97346.53
2023-05-09T18:08:15.341Z,97350.41
2023-05-09T18:10:43.634Z,97342.72
2023-05-09T18:13:10.894Z,97343.53
2023-05-09T18:15:38.524Z,97354.50
2023-05-09T18:18:08.528Z,97357.44
2023-05-09T18:20:35.989Z,97350.06
2023-05-09T18:23:02.524Z,97360.53
2023-05-09T18:25:31.420Z,97361.09
2023-05-09T18:27:58.365Z,97355.34
2023-05-09T18:30:24.801Z,97365.88
2023-05-09T18:32:51.360Z,97360.44
2023-05-09T18:35:17.903Z,97368.97
2023-05-09T18:37:44.672Z,97359.31
2023-05-09T18:40:17.061Z,97366.78
2023-05-09T18:42:43.839Z,97368.44
2023-05-09T18:45:10.830Z,97375.13
2023-05-09T18:47:38.291Z,97380.16
2023-05-09T18:50:07.092Z,97380.56
2023-05-09T18:52:34.384Z,97376.78
2023-05-09T18:55:01.077Z,97387.69
2023-05-09T18:57:28.322Z,97388.16
2023-05-09T18:59:55.145Z,97382.78
2023-05-09T19:02:26.718Z,97386.69
2023-05-09T19:04:53.247Z,97389.88
2023-05-09T19:07:19.835Z,97391.81
2023-05-09T19:09:48.309Z,97396.88
2023-05-09T19:12:16.443Z,97391.09
2023-05-09T19:14:45.719Z,97390.31
2023-05-09T19:17:14.395Z,97408.56
2023-05-09T19:19:40.878Z,97400.06
2023-05-09T19:25:06.946Z,97402.78
2023-05-09T19:27:37.292Z,97409.38
2023-05-09T19:30:05.306Z,97415.66
2023-05-09T19:32:31.789Z,97417.94
2023-05-09T19:34:58.850Z,97409.78
2023-05-09T19:37:25.382Z,97420.66
2023-05-09T19:39:53.750Z,97420.66
2023-05-09T19:42:21.546Z,97420.31
2023-05-09T19:44:48.207Z,97424.19
2023-05-09T19:47:16.488Z,97426.56
2023-05-09T19:49:43.212Z,97432.75
2023-05-09T19:52:09.775Z,97430.84
2023-05-09T19:54:36.505Z,97430.44
2023-05-09T19:57:06.379Z,97431.66
2023-05-09T19:59:34.657Z,97435.56
2023-05-09T20:02:01.437Z,97438.69
2023-05-09T20:04:30.802Z,97439.84
2023-05-09T20:06:57.274Z,97443.38
2023-05-09T20:09:25.523Z,97436.38
2023-05-09T20:11:52.279Z,97439.09
2023-05-09T20:14:18.825Z,97445.72
2023-05-09T20:16:45.809Z,97444.53
2023-05-09T20:19:14.409Z,97432.94
2023-05-09T20:21:41.209Z,97442.25
2023-05-09T20:24:13.499Z,97443.84
2023-05-09T20:26:39.997Z,97441.53
2023-05-09T20:29:06.653Z,97436.09
2023-05-09T20:31:35.394Z,97438.44
2023-05-09T20:34:01.941Z,97441.19
2023-05-09T20:36:28.750Z,97446.22
2023-05-09T20:38:59.513Z,97439.25
2023-05-09T20:41:26.002Z,97435.78
2023-05-09T20:43:52.632Z,97446.25
2023-05-09T20:46:23.739Z,97446.31
2023-05-09T20:48:50.232Z,97441.66
2023-05-09T20:51:16.676Z,97441.72
2023-05-09T20:53:45.332Z,97446.41
2023-05-09T20:56:11.857Z,97441.00
2023-05-09T20:58:40.915Z,97448.81
2023-05-09T21:01:07.693Z,97450.78
2023-05-09T21:03:34.218Z,97451.94
2023-05-09T21:06:00.721Z,97442.28
2023-05-09T21:08:29.335Z,97444.22
2023-05-09T21:10:56.033Z,97449.28
2023-05-09T21:13:22.728Z,97453.56
2023-05-09T21:15:52.301Z,97452.06
2023-05-09T21:18:19.310Z,97451.66
2023-05-09T21:20:45.999Z,97452.84
2023-05-09T21:23:12.730Z,97455.19
2023-05-09T21:25:39.248Z,97450.56
2023-05-09T21:28:05.738Z,97452.09
2023-05-09T21:30:38.854Z,97449.78
2023-05-09T21:33:05.495Z,97453.25
2023-05-09T21:35:32.127Z,97446.28
2023-05-09T21:38:00.308Z,97454.47
2023-05-09T21:40:31.550Z,97463.38
2023-05-09T21:42:58.026Z,97461.81
2023-05-09T21:45:24.509Z,97462.22
2023-05-09T21:47:51.130Z,97455.25
2023-05-09T21:50:18.342Z,97466.88
2023-05-09T21:52:47.273Z,97461.09
2023-05-09T21:55:13.742Z,97462.63
2023-05-09T21:57:40.249Z,97468.44
2023-05-09T22:00:14.227Z,97470.00
2023-05-09T22:02:44.812Z,97468.84
2023-05-09T22:05:13.548Z,97473.13
2023-05-09T22:07:41.774Z,97468.44
2023-05-09T22:10:08.796Z,97466.53
2023-05-09T22:12:35.564Z,97466.13
2023-05-09T22:15:03.283Z,97476.63
2023-05-09T22:17:29.917Z,97475.44
2023-05-09T22:19:56.500Z,97473.50
2023-05-09T22:22:31.020Z,97473.53
2023-05-09T22:24:57.472Z,97470.81
2023-05-09T22:27:23.979Z,97473.53
2023-05-09T22:29:50.742Z,97481.66
2023-05-09T22:32:17.257Z,97480.91
2023-05-09T22:34:46.787Z,97478.59
2023-05-09T22:37:13.467Z,97476.28
2023-05-09T22:39:40.341Z,97470.88
2023-05-09T22:42:09.392Z,97468.94
2023-05-09T22:44:37.638Z,97475.94
2023-05-09T22:47:04.172Z,97468.56
2023-05-09T22:49:30.727Z,97464.72
2023-05-09T22:51:59.405Z,97469.78
2023-05-09T22:54:26.915Z,97479.47
2023-05-09T22:56:53.392Z,97476.38
2023-05-09T22:59:22.149Z,97479.09
2023-05-09T23:01:51.012Z,97483.38
2023-05-09T23:04:17.549Z,97483.38
2023-05-09T23:06:46.253Z,97479.47
2023-05-09T23:09:12.863Z,97491.47
2023-05-09T23:11:39.309Z,97491.47
2023-05-09T23:14:11.177Z,97487.25
2023-05-09T23:16:37.693Z,97491.09
2023-05-09T23:19:04.426Z,97484.13
2023-05-09T23:21:32.677Z,97484.13
2023-05-09T23:23:59.344Z,97488.00
2023-05-09T23:26:27.713Z,97485.28
2023-05-09T23:28:55.779Z,97479.50
2023-05-09T23:31:22.347Z,97472.53
2023-05-09T23:33:49.703Z,97485.72
2023-05-09T23:36:16.415Z,97485.72
2023-05-09T23:38:42.901Z,97481.44
2023-05-09T23:41:09.511Z,97475.66
2023-05-09T23:43:40.450Z,97491.13
2023-05-09T23:46:06.967Z,97490.38
2023-05-09T23:48:33.636Z,97491.53
2023-05-09T23:51:02.410Z,97491.94
2023-05-09T23:53:28.924Z,97484.59
2023-05-09T23:55:58.750Z,97480.31
2023-05-09T23:58:25.388Z,97476.44
